createdAt,value
2018-04-08T00:00:01.301Z,16.70
2018-04-08T00:02:29.664Z,16.68
2018-04-08T00:04:57.739Z,16.73
2018-04-08T00:07:25.871Z,16.62
2018-04-08T00:09:53.989Z,16.72
2018-04-08T00:12:22.959Z,16.59
2018-04-08T00:14:51.334Z,16.50
2018-04-08T00:17:19.439Z,16.49
2018-04-08T00:19:47.533Z,16.55
2018-04-08T00:22:15.706Z,16.28
2018-04-08T00:24:43.811Z,16.41
2018-04-08T00:27:12.837Z,16.41
2018-04-08T00:29:40.938Z,16.36
2018-04-08T00:32:09.086Z,16.34
2018-04-08T00:47:37.204Z,16.21
2018-04-08T00:50:05.307Z,16.19
2018-04-08T00:52:33.426Z,16.22
2018-04-08T00:55:01.548Z,16.22
2018-04-08T00:57:29.649Z,16.31
2018-04-08T00:59:57.781Z,16.38
2018-04-08T01:02:27.231Z,16.44
2018-04-08T01:04:55.346Z,16.35
2018-04-08T01:07:23.460Z,16.29
2018-04-08T01:09:51.582Z,16.12
2018-04-08T01:12:19.665Z,16.04
2018-04-08T01:14:47.782Z,16.08
2018-04-08T01:17:16.201Z,15.93
2018-04-08T01:19:44.325Z,16.05
2018-04-08T01:22:12.449Z,16.02
2018-04-08T01:24:41.314Z,16.07
2018-04-08T01:27:09.458Z,15.90
2018-04-08T01:29:37.555Z,15.89
2018-04-08T01:32:06.267Z,15.78
2018-04-08T01:34:34.397Z,15.77
2018-04-08T01:37:02.522Z,15.85
2018-04-08T01:39:30.629Z,15.69
2018-04-08T01:41:58.721Z,15.74
2018-04-08T01:44:27.645Z,15.80
2018-04-08T01:46:55.815Z,15.75
2018-04-08T01:49:24.827Z,15.76
2018-04-08T01:51:53.762Z,15.73
2018-04-08T01:54:22.236Z,15.79
2018-04-08T01:56:50.329Z,15.76
2018-04-08T01:59:18.640Z,15.88
2018-04-08T02:01:46.742Z,15.82
2018-04-08T02:04:14.874Z,15.85
2018-04-08T02:06:43.841Z,15.82
2018-04-08T02:09:12.427Z,15.79
2018-04-08T02:11:40.931Z,15.70
2018-04-08T02:14:09.091Z,15.69
2018-04-08T02:16:37.212Z,15.78
2018-04-08T02:19:05.346Z,15.89
2018-04-08T02:21:34.020Z,15.82
2018-04-08T02:24:02.194Z,15.84
2018-04-08T02:26:30.288Z,15.63
2018-04-08T02:28:58.397Z,15.77
2018-04-08T02:31:26.506Z,15.81
2018-04-08T02:33:55.264Z,15.51
2018-04-08T02:36:23.751Z,15.70
2018-04-08T02:38:52.877Z,15.64
2018-04-08T02:41:21.001Z,15.66
2018-04-08T02:43:49.130Z,15.62
2018-04-08T02:46:17.250Z,15.40
2018-04-08T02:48:45.955Z,15.35
2018-04-08T02:51:14.695Z,15.51
2018-04-08T02:53:42.835Z,15.51
2018-04-08T02:56:11.956Z,15.49
2018-04-08T02:58:40.154Z,15.53
2018-04-08T03:01:08.250Z,15.52
2018-04-08T03:03:36.346Z,15.57
2018-04-08T03:06:05.267Z,15.54
2018-04-08T03:08:33.373Z,15.31
2018-04-08T03:11:01.467Z,15.27
2018-04-08T03:13:29.588Z,15.24
2018-04-08T03:15:58.845Z,15.03
2018-04-08T03:18:27.201Z,15.11
2018-04-08T03:20:55.346Z,15.10
2018-04-08T03:23:23.430Z,15.09
2018-04-08T03:25:51.536Z,15.09
2018-04-08T03:28:19.652Z,15.04
2018-04-08T03:30:48.637Z,14.97
2018-04-08T03:33:17.372Z,15.04
2018-04-08T03:35:45.526Z,14.96
2018-04-08T03:38:13.632Z,14.91
2018-04-08T03:40:41.727Z,15.01
2018-04-08T03:43:09.838Z,15.01
2018-04-08T03:45:38.742Z,14.98
2018-04-08T03:48:07.722Z,14.96
2018-04-08T03:50:35.824Z,14.99
2018-04-08T03:53:03.923Z,15.02
2018-04-08T03:55:32.042Z,14.90
2018-04-08T03:58:00.138Z,14.91
2018-04-08T04:00:28.242Z,14.88
2018-04-08T04:02:56.349Z,14.90
2018-04-08T04:18:42.310Z,14.53
2018-04-08T04:21:22.343Z,14.50
2018-04-08T04:26:54.079Z,14.53
2018-04-08T04:29:22.256Z,14.43
2018-04-08T04:31:51.351Z,14.32
2018-04-08T04:34:19.820Z,14.21
2018-04-08T04:36:47.926Z,14.16
2018-04-08T04:39:16.014Z,14.17
2018-04-08T04:41:44.144Z,14.14
2018-04-08T04:44:12.243Z,14.06
2018-04-08T04:46:40.336Z,14.16
2018-04-08T05:02:13.463Z,13.73
2018-04-08T05:04:41.652Z,13.91
2018-04-08T05:07:10.296Z,13.96
2018-04-08T05:09:38.384Z,14.00
2018-04-08T05:12:06.555Z,14.01
2018-04-08T05:14:35.363Z,14.09
2018-04-08T05:17:03.466Z,14.03
2018-04-08T05:19:31.597Z,14.03
2018-04-08T05:21:59.730Z,14.08
2018-04-08T05:24:27.829Z,14.04
2018-04-08T05:26:55.963Z,14.07
2018-04-08T05:29:24.067Z,14.10
2018-04-08T05:31:52.188Z,14.20
2018-04-08T05:34:20.766Z,14.20
2018-04-08T05:36:48.865Z,14.16
2018-04-08T05:39:16.991Z,14.26
2018-04-08T05:41:45.106Z,14.31
2018-04-08T05:44:13.279Z,14.32
2018-04-08T05:46:41.394Z,14.32
2018-04-08T05:49:09.522Z,14.31
2018-04-08T05:51:37.623Z,14.36
2018-04-08T05:54:06.517Z,14.42
2018-04-08T05:56:34.687Z,14.42
2018-04-08T05:59:03.359Z,14.38
2018-04-08T06:01:31.463Z,14.26
2018-04-08T06:03:59.584Z,14.29
2018-04-08T06:06:28.454Z,14.31
2018-04-08T06:08:56.554Z,14.45
2018-04-08T06:11:24.746Z,14.32
2018-04-08T06:13:52.912Z,14.43
2018-04-08T06:16:21.011Z,14.50
2018-04-08T06:18:49.136Z,14.42
2018-04-08T06:21:17.251Z,14.50
2018-04-08T06:23:45.409Z,14.63
2018-04-08T06:26:13.548Z,14.59
2018-04-08T06:28:41.738Z,14.61
2018-04-08T06:31:09.825Z,14.61
2018-04-08T06:33:37.931Z,14.59
2018-04-08T06:36:06.726Z,14.69
2018-04-08T06:38:35.453Z,14.56
2018-04-08T06:41:03.558Z,14.70
2018-04-08T06:53:16.694Z,14.86
2018-04-08T06:55:44.786Z,14.88
2018-04-08T06:58:12.903Z,14.93
2018-04-08T07:00:41.966Z,15.00
2018-04-08T07:03:10.214Z,15.09
2018-04-08T07:05:38.308Z,15.22
2018-04-08T07:08:07.428Z,15.15
2018-04-08T07:10:35.554Z,15.10
2018-04-08T07:13:03.645Z,15.05
2018-04-08T07:15:31.772Z,15.09
2018-04-08T07:18:00.836Z,15.17
2018-04-08T07:20:29.399Z,15.07
2018-04-08T07:22:57.528Z,15.15
2018-04-08T07:25:26.364Z,15.42
2018-04-08T07:27:54.644Z,15.56
2018-04-08T07:30:22.813Z,15.70
2018-04-08T07:32:51.942Z,15.85
2018-04-08T07:35:20.362Z,16.13
2018-04-08T07:37:48.822Z,16.31
2018-04-08T07:40:17.856Z,16.50
2018-04-08T07:42:45.990Z,16.45
2018-04-08T07:45:14.730Z,16.75
2018-04-08T07:47:42.918Z,17.06
2018-04-08T07:50:11.034Z,17.25
2018-04-08T07:52:39.139Z,17.48
2018-04-08T07:55:07.320Z,17.66
2018-04-08T07:57:35.470Z,17.51
2018-04-08T08:00:03.624Z,17.17
2018-04-08T08:02:31.787Z,17.08
2018-04-08T08:05:00.334Z,16.99
2018-04-08T08:07:29.651Z,17.03
2018-04-08T08:09:57.789Z,17.15
2018-04-08T08:12:26.434Z,17.27
2018-04-08T08:14:54.534Z,17.36
2018-04-08T08:17:22.634Z,17.16
2018-04-08T08:19:50.762Z,16.87
2018-04-08T08:22:18.866Z,17.01
2018-04-08T08:24:47.062Z,17.26
2018-04-08T08:27:15.196Z,17.20
2018-04-08T08:29:43.325Z,17.18
2018-04-08T08:32:11.414Z,17.49
2018-04-08T08:34:39.525Z,17.66
2018-04-08T08:37:07.748Z,17.64
2018-04-08T08:39:36.482Z,17.57
2018-04-08T08:42:04.596Z,17.72
2018-04-08T08:44:32.722Z,17.72
2018-04-08T08:47:00.835Z,17.71
2018-04-08T08:49:28.927Z,17.67
2018-04-08T08:51:57.064Z,17.70
2018-04-08T08:54:25.180Z,17.56
2018-04-08T08:56:54.006Z,17.71
2018-04-08T08:59:22.365Z,17.63
2018-04-08T09:01:50.449Z,17.67
2018-04-08T09:04:18.544Z,17.71
2018-04-08T09:06:47.639Z,17.61
2018-04-08T09:09:16.010Z,17.51
2018-04-08T09:11:44.114Z,17.57
2018-04-08T09:14:12.211Z,17.58
2018-04-08T09:16:40.444Z,17.60
2018-04-08T09:19:09.567Z,17.64
2018-04-08T09:24:46.035Z,17.64
2018-04-08T09:27:14.275Z,17.54
2018-04-08T09:29:43.935Z,17.59
2018-04-08T09:32:12.001Z,17.57
2018-04-08T09:34:40.145Z,17.52
2018-04-08T09:37:08.251Z,17.48
2018-04-08T09:39:36.443Z,17.54
2018-04-08T09:42:04.569Z,17.61
2018-04-08T09:44:33.042Z,17.68
2018-04-08T10:00:06.247Z,17.98
2018-04-08T10:02:36.344Z,17.89
2018-04-08T10:05:04.438Z,17.99
2018-04-08T10:07:32.975Z,18.05
2018-04-08T10:10:01.072Z,18.10
2018-04-08T10:12:30.117Z,18.08
2018-04-08T10:14:59.115Z,18.13
2018-04-08T10:17:28.795Z,18.16
2018-04-08T10:19:56.889Z,18.15
2018-04-08T10:35:25.260Z,18.29
2018-04-08T10:37:53.367Z,18.41
2018-04-08T10:40:21.535Z,18.48
2018-04-08T10:42:50.505Z,18.54
2018-04-08T10:45:18.615Z,18.50
2018-04-08T10:47:47.393Z,18.49
2018-04-08T10:50:15.519Z,18.53
2018-04-08T10:52:43.621Z,18.49
2018-04-08T10:55:11.776Z,18.52
2018-04-08T10:57:39.894Z,18.57
2018-04-08T11:00:07.999Z,18.56
2018-04-08T11:02:36.107Z,18.58
2018-04-08T11:05:04.275Z,18.57
2018-04-08T11:07:32.373Z,18.65
2018-04-08T11:10:00.722Z,18.77
2018-04-08T11:12:28.815Z,18.83
2018-04-08T11:14:56.923Z,18.88
2018-04-08T11:17:25.923Z,18.96
2018-04-08T11:19:54.039Z,19.07
2018-04-08T11:22:22.161Z,19.06
2018-04-08T11:24:50.308Z,19.05
2018-04-08T11:27:18.417Z,19.09
2018-04-08T11:29:46.523Z,19.15
2018-04-08T11:32:14.646Z,19.29
2018-04-08T11:34:42.795Z,19.26
2018-04-08T11:37:11.246Z,19.24
2018-04-08T11:39:39.329Z,19.24
2018-04-08T11:42:07.433Z,19.29
2018-04-08T11:44:35.549Z,19.35
2018-04-08T11:47:03.687Z,19.39
2018-04-08T11:49:31.791Z,19.49
2018-04-08T11:52:00.186Z,19.50
2018-04-08T11:54:28.321Z,19.45
2018-04-08T11:56:56.417Z,19.42
2018-04-08T11:59:24.525Z,19.45
2018-04-08T12:01:52.646Z,19.51
2018-04-08T12:04:20.760Z,19.52
2018-04-08T12:06:48.883Z,19.57
2018-04-08T12:09:17.005Z,19.57
2018-04-08T12:11:45.697Z,19.60
2018-04-08T12:14:13.791Z,19.67
2018-04-08T12:16:41.925Z,19.72
2018-04-08T12:19:10.036Z,19.77
2018-04-08T12:21:38.143Z,19.82
2018-04-08T12:24:06.263Z,19.86
2018-04-08T12:26:49.242Z,19.95
2018-04-08T12:29:17.371Z,20.05
2018-04-08T12:31:45.775Z,20.15
2018-04-08T12:47:13.899Z,20.11
2018-04-08T12:49:42.011Z,20.13
2018-04-08T12:52:10.123Z,20.15
2018-04-08T12:54:38.562Z,20.19
2018-04-08T12:57:07.311Z,20.23
2018-04-08T12:59:35.427Z,20.23
2018-04-08T13:02:03.532Z,20.25
2018-04-08T13:04:31.664Z,20.23
2018-04-08T13:07:00.530Z,20.22
2018-04-08T13:09:28.636Z,20.19
2018-04-08T13:24:56.758Z,19.80
2018-04-08T13:27:24.888Z,19.77
2018-04-08T13:29:53.842Z,19.76
2018-04-08T13:32:22.010Z,19.80
2018-04-08T13:34:50.110Z,19.74
2018-04-08T13:37:18.878Z,19.64
2018-04-08T13:39:47.050Z,19.62
2018-04-08T13:42:15.145Z,19.62
2018-04-08T13:44:43.241Z,19.63
2018-04-08T13:47:13.149Z,19.63
2018-04-08T13:49:41.262Z,19.59
2018-04-08T13:52:09.361Z,19.59
2018-04-08T13:54:37.493Z,19.63
2018-04-08T13:57:05.697Z,19.68
2018-04-08T13:59:34.141Z,19.73
2018-04-08T14:02:02.300Z,19.73
2018-04-08T14:04:31.619Z,19.76
2018-04-08T14:07:00.012Z,19.82
2018-04-08T14:09:28.101Z,19.90
2018-04-08T14:11:56.245Z,19.84
2018-04-08T14:14:24.360Z,19.77
2018-04-08T14:16:53.082Z,19.64
2018-04-08T14:19:21.202Z,19.63
2018-04-08T14:21:49.319Z,19.73
2018-04-08T14:24:17.530Z,19.75
2018-04-08T14:26:45.634Z,19.78
2018-04-08T14:29:13.746Z,19.69
2018-04-08T14:31:41.853Z,19.59
2018-04-08T14:34:09.971Z,19.62
2018-04-08T14:36:38.073Z,19.64
2018-04-08T14:39:06.179Z,19.57
2018-04-08T14:41:34.323Z,19.52
2018-04-08T14:44:02.676Z,19.56
2018-04-08T14:46:30.790Z,19.48
2018-04-08T14:48:58.928Z,19.53
2018-04-08T14:51:27.539Z,19.53
2018-04-08T14:53:55.683Z,19.42
2018-04-08T14:56:23.819Z,19.48
2018-04-08T14:58:51.958Z,19.52
2018-04-08T15:01:20.071Z,19.45
2018-04-08T15:03:48.181Z,19.43
2018-04-08T15:06:16.287Z,19.48
2018-04-08T15:08:44.406Z,19.51
2018-04-08T15:11:12.538Z,19.45
2018-04-08T15:13:40.954Z,19.45
2018-04-08T15:16:09.073Z,19.37
2018-04-08T15:18:37.187Z,19.24
2018-04-08T15:21:05.296Z,19.29
2018-04-08T15:23:33.389Z,19.36
2018-04-08T15:26:01.536Z,19.42
2018-04-08T15:28:29.938Z,19.38
2018-04-08T15:30:58.045Z,19.34
2018-04-08T15:33:26.462Z,19.37
2018-04-08T15:35:54.638Z,19.43
2018-04-08T15:38:22.741Z,19.36
2018-04-08T15:40:50.871Z,19.49
2018-04-08T15:43:19.054Z,19.51
2018-04-08T15:45:47.173Z,19.57
2018-04-08T15:48:15.277Z,19.60
2018-04-08T15:50:44.511Z,19.61
2018-04-08T15:53:13.512Z,19.59
2018-04-08T15:55:41.624Z,19.63
2018-04-08T15:58:09.728Z,19.58
2018-04-08T16:00:37.846Z,19.51
2018-04-08T16:03:05.977Z,19.39
2018-04-08T16:05:34.835Z,19.36
2018-04-08T16:08:03.011Z,19.28
2018-04-08T16:10:31.106Z,19.25
2018-04-08T16:12:59.228Z,19.28
2018-04-08T16:15:27.396Z,19.25
2018-04-08T16:17:55.464Z,19.32
2018-04-08T16:20:23.598Z,19.29
2018-04-08T16:22:51.715Z,19.36
2018-04-08T16:25:19.837Z,19.40
2018-04-08T16:27:48.305Z,19.40
2018-04-08T16:30:16.398Z,19.36
2018-04-08T16:32:44.504Z,19.32
2018-04-08T16:35:13.174Z,19.25
2018-04-08T16:37:41.262Z,19.25
2018-04-08T16:40:10.257Z,19.13
2018-04-08T16:42:38.378Z,19.09
2018-04-08T16:45:06.473Z,19.07
2018-04-08T16:47:34.586Z,19.08
2018-04-08T16:50:02.737Z,18.98
2018-04-08T16:52:30.862Z,18.92
2018-04-08T16:54:58.945Z,18.86
2018-04-08T16:57:27.122Z,18.86
2018-04-08T16:59:55.220Z,18.87
2018-04-08T17:02:23.323Z,18.56
2018-04-08T17:04:51.462Z,18.39
2018-04-08T17:07:20.350Z,18.29
2018-04-08T17:09:48.515Z,18.35
2018-04-08T17:12:16.625Z,18.33
2018-04-08T17:14:44.735Z,18.24
2018-04-08T17:17:13.529Z,18.32
2018-04-08T17:19:41.646Z,18.36
2018-04-08T17:22:09.853Z,18.29
2018-04-08T17:24:37.936Z,18.18
2018-04-08T17:27:06.777Z,18.17
2018-04-08T17:29:35.149Z,18.13
2018-04-08T17:32:03.246Z,18.07
2018-04-08T17:34:31.338Z,18.05
2018-04-08T17:37:00.186Z,18.00
2018-04-08T17:39:29.451Z,17.98
2018-04-08T17:41:57.616Z,17.93
2018-04-08T17:44:25.730Z,17.77
2018-04-08T17:46:53.824Z,17.65
2018-04-08T17:49:22.014Z,17.73
2018-04-08T17:51:50.102Z,17.79
2018-04-08T17:54:18.616Z,17.80
2018-04-08T17:56:46.894Z,17.75
2018-04-08T17:59:15.286Z,17.74
2018-04-08T18:01:43.412Z,17.66
2018-04-08T18:04:11.878Z,17.62
2018-04-08T18:06:39.975Z,17.62
2018-04-08T18:09:08.208Z,17.42
2018-04-08T18:11:36.314Z,17.47
2018-04-08T18:14:04.415Z,17.42
2018-04-08T18:16:32.525Z,17.25
2018-04-08T18:19:01.586Z,17.30
2018-04-08T18:21:29.698Z,17.23
2018-04-08T18:23:57.830Z,17.33
2018-04-08T18:26:26.022Z,17.30
2018-04-08T18:28:54.122Z,17.12
2018-04-08T18:31:22.214Z,17.21
2018-04-08T18:33:50.350Z,17.14
2018-04-08T18:36:18.867Z,17.17
2018-04-08T18:38:47.231Z,17.06
2018-04-08T18:41:15.366Z,17.03
2018-04-08T18:43:43.470Z,17.02
2018-04-08T18:46:11.590Z,16.91
2018-04-08T18:48:39.712Z,16.88
2018-04-08T18:51:07.920Z,16.95
2018-04-08T18:53:36.024Z,16.93
2018-04-08T18:56:04.134Z,16.87
2018-04-08T18:58:32.251Z,16.68
2018-04-08T19:01:01.107Z,16.46
2018-04-08T19:03:29.228Z,16.39
2018-04-08T19:05:57.326Z,16.34
2018-04-08T19:08:25.485Z,16.32
2018-04-08T19:10:54.119Z,16.37
2018-04-08T19:13:22.213Z,16.27
2018-04-08T19:15:50.723Z,16.16
2018-04-08T19:18:18.878Z,16.18
2018-04-08T19:20:47.732Z,16.09
2018-04-08T19:23:16.608Z,16.15
2018-04-08T19:38:44.735Z,16.02
2018-04-08T19:41:12.869Z,15.96
2018-04-08T19:43:41.003Z,15.86
2018-04-08T19:46:09.336Z,15.94
2018-04-08T19:48:37.435Z,15.75
2018-04-08T19:51:05.591Z,15.88
2018-04-08T19:53:34.135Z,15.99
2018-04-08T19:56:02.931Z,15.96
2018-04-08T19:58:31.050Z,16.02
2018-04-08T20:00:59.179Z,16.01
2018-04-08T20:03:28.105Z,15.76
2018-04-08T20:05:56.256Z,15.81
2018-04-08T20:08:24.378Z,15.79
2018-04-08T20:10:52.537Z,15.78
2018-04-08T20:13:21.566Z,15.62
2018-04-08T20:15:50.599Z,15.69
2018-04-08T20:18:18.675Z,15.60
2018-04-08T20:20:47.684Z,15.71
2018-04-08T20:23:15.901Z,15.74
2018-04-08T20:25:44.661Z,15.58
2018-04-08T20:28:13.214Z,15.70
2018-04-08T20:30:42.305Z,15.67
2018-04-08T20:33:10.406Z,15.53
2018-04-08T20:35:38.529Z,15.45
2018-04-08T20:38:07.301Z,15.39
2018-04-08T20:40:35.404Z,15.41
2018-04-08T20:43:03.535Z,15.48
2018-04-08T20:58:31.647Z,15.37
2018-04-08T21:00:59.816Z,15.39
2018-04-08T21:03:28.587Z,15.35
2018-04-08T21:05:56.763Z,15.19
2018-04-08T21:08:25.792Z,15.29
2018-04-08T21:10:53.907Z,15.26
2018-04-08T21:13:22.004Z,15.19
2018-04-08T21:15:55.066Z,15.07
2018-04-08T21:18:23.159Z,15.02
2018-04-08T21:20:51.263Z,15.02
2018-04-08T21:23:19.370Z,14.97
2018-04-08T21:25:47.841Z,15.09
2018-04-08T21:28:16.905Z,14.96
2018-04-08T21:30:45.002Z,14.88
2018-04-08T21:33:13.161Z,14.81
2018-04-08T21:35:41.272Z,14.82
2018-04-08T21:38:09.362Z,14.86
2018-04-08T21:40:37.491Z,14.91
2018-04-08T21:43:05.611Z,14.93
2018-04-08T21:45:33.735Z,14.97
2018-04-08T21:48:01.931Z,14.94
2018-04-08T22:03:30.983Z,14.76
2018-04-08T22:05:59.790Z,14.75
2018-04-08T22:08:28.757Z,14.72
2018-04-08T22:10:56.948Z,14.74
2018-04-08T22:13:25.038Z,14.83
2018-04-08T22:15:53.297Z,14.83
2018-04-08T22:18:21.416Z,14.94
2018-04-08T22:20:50.327Z,15.02
2018-04-08T22:23:18.445Z,14.99
2018-04-08T22:25:48.209Z,14.91
2018-04-08T22:28:16.294Z,14.84
2018-04-08T22:30:44.391Z,14.70
2018-04-08T22:33:12.541Z,14.73
2018-04-08T22:35:41.442Z,14.61
2018-04-08T22:38:09.525Z,14.68
2018-04-08T22:40:37.622Z,14.67
2018-04-08T22:43:05.750Z,14.63
2018-04-08T22:45:34.129Z,14.58
2018-04-08T22:48:02.233Z,14.63
2018-04-08T22:50:30.371Z,14.59
2018-04-08T22:52:58.489Z,14.62
2018-04-08T22:55:26.565Z,14.62
2018-04-08T22:57:54.705Z,14.63
2018-04-08T23:00:25.563Z,14.56
2018-04-08T23:02:53.711Z,14.57
2018-04-08T23:05:21.821Z,14.56
2018-04-08T23:07:49.945Z,14.43
2018-04-08T23:10:18.065Z,14.43
2018-04-08T23:12:46.162Z,14.36
2018-04-08T23:15:14.542Z,14.38
2018-04-08T23:17:42.728Z,14.53
2018-04-08T23:20:10.810Z,14.49
2018-04-08T23:22:38.926Z,14.55
2018-04-08T23:25:07.048Z,14.65
2018-04-08T23:27:35.151Z,14.72
2018-04-08T23:30:03.266Z,14.75
2018-04-08T23:32:31.385Z,14.65
2018-04-08T23:34:59.485Z,14.53
2018-04-08T23:37:28.427Z,14.44
2018-04-08T23:39:57.646Z,14.17
2018-04-08T23:42:25.799Z,14.09
2018-04-08T23:44:53.895Z,14.17
2018-04-08T23:47:22.791Z,14.13
2018-04-08T23:49:51.169Z,14.27
2018-04-08T23:52:19.262Z,14.18
2018-04-08T23:54:47.411Z,14.11
2018-04-08T23:57:15.578Z,13.97
2018-04-08T23:59:43.691Z,13.99
